createdAt,value
2022-11-29T00:01:26.061Z,97890.84
2022-11-29T00:03:53.433Z,97888.25
2022-11-29T00:06:22.267Z,97876.63
2022-11-29T00:08:49.469Z,97879.06
2022-11-29T00:11:40.629Z,97884.34
2022-11-29T00:14:09.173Z,97881.06
2022-11-29T00:16:36.089Z,97889.22
2022-11-29T00:19:02.879Z,97882.50
2022-11-29T00:21:29.500Z,97881.22
2022-11-29T00:23:55.991Z,97878.59
2022-11-29T00:26:22.512Z,97881.41
2022-11-29T00:28:48.942Z,97885.13
2022-11-29T00:31:15.368Z,97880.63
2022-11-29T00:33:41.824Z,97885.53
2022-11-29T00:36:08.469Z,97887.56
2022-11-29T00:38:34.941Z,97882.66
2022-11-29T00:41:01.376Z,97896.13
2022-11-29T00:43:27.830Z,97890.41
2022-11-29T00:45:54.369Z,97872.09
2022-11-29T00:48:20.892Z,97890.16
2022-11-29T00:50:47.387Z,97891.19
2022-11-29T00:53:13.921Z,97898.56
2022-11-29T00:55:40.644Z,97891.00
2022-11-29T00:58:07.440Z,97882.84
2022-11-29T01:00:33.881Z,97896.13
2022-11-29T01:03:00.296Z,97899.78
2022-11-29T01:05:26.696Z,97903.25
2022-11-29T01:07:53.369Z,97902.66
2022-11-29T01:10:20.109Z,97896.53
2022-11-29T01:12:46.570Z,97904.47
2022-11-29T01:15:13.153Z,97908.75
2022-11-29T01:17:40.004Z,97911.63
2022-11-29T01:20:08.917Z,97904.69
2022-11-29T01:22:35.958Z,97899.38
2022-11-29T01:25:02.681Z,97903.66
2022-11-29T01:27:29.494Z,97899.78
2022-11-29T01:29:55.932Z,97905.88
2022-11-29T01:32:22.488Z,97915.69
2022-11-29T01:34:48.936Z,97915.06
2022-11-29T01:37:15.532Z,97924.25
2022-11-29T01:39:42.551Z,97908.97
2022-11-29T01:42:13.628Z,97914.00
2022-11-29T01:44:39.977Z,97925.88
2022-11-29T01:47:06.520Z,97916.53
2022-11-29T01:49:37.792Z,97912.84
2022-11-29T01:52:26.493Z,97924.69
2022-11-29T01:54:58.262Z,97925.09
2022-11-29T01:57:26.101Z,97927.94
2022-11-29T01:59:58.038Z,97927.09
2022-11-29T02:02:35.373Z,97922.19
2022-11-29T02:05:03.505Z,97927.09
2022-11-29T02:07:29.923Z,97925.63
2022-11-29T02:09:56.493Z,97916.47
2022-11-29T02:12:41.575Z,97925.84
2022-11-29T02:15:27.649Z,97920.31
2022-11-29T02:18:09.237Z,97923.19
2022-11-29T02:21:09.835Z,97918.72
2022-11-29T02:23:54.660Z,97907.06
2022-11-29T02:27:11.731Z,97918.72
2022-11-29T02:29:47.360Z,97920.19
2022-11-29T02:32:38.926Z,97914.09
2022-11-29T02:35:18.040Z,97902.88
2022-11-29T02:37:53.660Z,97917.34
2022-11-29T02:40:29.096Z,97912.84
2022-11-29T02:43:20.752Z,97921.22
2022-11-29T02:45:51.351Z,97923.22
2022-11-29T02:48:26.041Z,97925.44
2022-11-29T02:51:04.540Z,97926.69
2022-11-29T02:53:42.064Z,97918.91
2022-11-29T02:56:26.085Z,97927.47
2022-11-29T02:59:07.390Z,97925.41
2022-11-29T03:01:47.128Z,97920.91
2022-11-29T03:04:39.337Z,97922.34
2022-11-29T03:07:48.728Z,97924.41
2022-11-29T03:10:21.074Z,97939.06
2022-11-29T03:12:50.202Z,97937.84
2022-11-29T03:15:30.393Z,97937.66
2022-11-29T03:18:14.665Z,97941.94
2022-11-29T03:21:06.160Z,97946.00
2022-11-29T03:23:39.313Z,97942.13
2022-11-29T03:26:15.268Z,97947.44
2022-11-29T03:28:54.979Z,97937.66
2022-11-29T03:31:29.985Z,97956.19
2022-11-29T03:34:32.315Z,97948.00
2022-11-29T03:37:19.963Z,97946.84
2022-11-29T03:40:02.126Z,97950.31
2022-11-29T03:42:34.406Z,97952.38
2022-11-29T03:45:24.901Z,97940.53
2022-11-29T03:48:14.559Z,97949.91
2022-11-29T03:50:52.395Z,97954.19
2022-11-29T03:53:45.152Z,97952.41
2022-11-29T03:56:30.827Z,97957.09
2022-11-29T03:59:13.222Z,97953.22
2022-11-29T04:02:06.961Z,97960.56
2022-11-29T04:05:10.646Z,97955.88
2022-11-29T04:08:01.745Z,97952.41
2022-11-29T04:10:40.264Z,97957.31
2022-11-29T04:13:30.188Z,97947.72
2022-11-29T04:16:08.685Z,97960.75
2022-11-29T04:18:56.624Z,97961.56
2022-11-29T04:21:51.145Z,97959.94
2022-11-29T04:24:55.389Z,97962.78
2022-11-29T04:27:49.489Z,97968.91
2022-11-29T04:30:23.830Z,97964.22
2022-11-29T04:32:59.766Z,97963.41
2022-11-29T04:35:56.084Z,97962.00
2022-11-29T04:38:41.339Z,97977.25
2022-11-29T04:41:26.469Z,97974.44
2022-11-29T04:44:16.408Z,97980.75
2022-11-29T04:46:51.781Z,97971.16
2022-11-29T04:49:21.258Z,97975.25
2022-11-29T04:52:14.719Z,97976.25
2022-11-29T04:54:56.654Z,97979.72
2022-11-29T04:57:49.204Z,97989.50
2022-11-29T05:00:20.306Z,97992.56
2022-11-29T05:02:58.911Z,98000.13
2022-11-29T05:05:41.866Z,97999.72
2022-11-29T05:08:16.577Z,98004.63
2022-11-29T05:10:59.745Z,98009.13
2022-11-29T05:13:42.864Z,98006.44
2022-11-29T05:16:34.228Z,98009.09
2022-11-29T05:19:16.293Z,98021.53
2022-11-29T05:22:18.380Z,98011.53
2022-11-29T05:24:50.562Z,98015.00
2022-11-29T05:27:47.043Z,97994.59
2022-11-29T05:30:20.394Z,98019.69
2022-11-29T05:32:57.928Z,98028.16
2022-11-29T05:35:51.941Z,98022.34
2022-11-29T05:38:49.994Z,98032.53
2022-11-29T05:41:44.451Z,98035.78
2022-11-29T05:44:23.998Z,98040.69
2022-11-29T05:47:00.657Z,98046.63
2022-11-29T05:49:49.823Z,98047.41
2022-11-29T05:52:19.384Z,98057.59
2022-11-29T05:54:57.802Z,98062.09
2022-11-29T05:57:58.641Z,98058.44
2022-11-29T06:00:32.043Z,98058.00
2022-11-29T06:03:14.024Z,98063.88
2022-11-29T06:05:53.061Z,98067.31
2022-11-29T06:08:44.130Z,98072.44
2022-11-29T06:11:36.269Z,98081.00
2022-11-29T06:14:13.576Z,98082.84
2022-11-29T06:16:50.686Z,98078.97
2022-11-29T06:19:32.510Z,98078.75
2022-11-29T06:22:20.880Z,98077.72
2022-11-29T06:25:23.103Z,98082.03
2022-11-29T06:27:59.589Z,98088.97
2022-11-29T06:30:46.140Z,98088.91
2022-11-29T06:33:22.491Z,98093.22
2022-11-29T06:36:13.654Z,98091.81
2022-11-29T06:38:41.104Z,98097.91
2022-11-29T06:41:14.570Z,98099.16
2022-11-29T06:43:41.548Z,98099.56
2022-11-29T06:46:36.359Z,98102.41
2022-11-29T06:49:09.838Z,98104.47
2022-11-29T06:51:48.104Z,98107.53
2022-11-29T06:54:36.183Z,98104.88
2022-11-29T06:57:18.851Z,98113.06
2022-11-29T07:00:25.244Z,98114.66
2022-11-29T07:03:19.797Z,98107.31
2022-11-29T07:05:46.798Z,98108.97
2022-11-29T07:08:15.531Z,98119.97
2022-11-29T07:10:43.209Z,98118.75
2022-11-29T07:13:15.890Z,98117.09
2022-11-29T07:16:06.524Z,98116.88
2022-11-29T07:18:55.584Z,98110.59
2022-11-29T07:22:04.043Z,98130.16
2022-11-29T07:24:49.342Z,98122.41
2022-11-29T07:27:22.497Z,98130.56
2022-11-29T07:30:14.029Z,98124.00
2022-11-29T07:33:05.169Z,98127.69
2022-11-29T07:36:01.561Z,98129.13
2022-11-29T07:38:40.324Z,98132.16
2022-11-29T07:41:27.372Z,98130.72
2022-11-29T07:44:09.869Z,98133.59
2022-11-29T07:46:36.365Z,98134.84
2022-11-29T07:49:02.893Z,98136.28
2022-11-29T07:51:29.398Z,98138.94
2022-11-29T07:53:55.881Z,98146.50
2022-11-29T07:56:22.370Z,98143.84
2022-11-29T07:58:48.989Z,98149.75
2022-11-29T08:01:15.562Z,98147.31
2022-11-29T08:03:42.670Z,98153.84
2022-11-29T08:06:09.298Z,98155.06
2022-11-29T08:08:40.606Z,98148.97
2022-11-29T08:11:11.387Z,98156.31
2022-11-29T08:13:37.817Z,98159.78
2022-11-29T08:16:04.545Z,98158.34
2022-11-29T08:18:30.983Z,98160.00
2022-11-29T08:20:57.465Z,98161.59
2022-11-29T08:23:23.902Z,98151.41
2022-11-29T08:25:50.355Z,98169.78
2022-11-29T08:28:17.109Z,98177.72
2022-11-29T08:30:43.580Z,98171.59
2022-11-29T08:33:10.051Z,98175.69
2022-11-29T08:35:36.510Z,98181.59
2022-11-29T08:38:04.831Z,98180.16
2022-11-29T08:40:31.457Z,98182.41
2022-11-29T08:42:58.408Z,98176.06
2022-11-29T08:45:25.000Z,98180.97
2022-11-29T08:47:51.483Z,98192.22
2022-11-29T08:50:18.309Z,98197.09
2022-11-29T08:53:05.724Z,98189.78
2022-11-29T08:55:40.051Z,98197.75
2022-11-29T08:58:08.819Z,98196.53
2022-11-29T09:00:35.647Z,98196.31
2022-11-29T09:03:22.720Z,98193.88
2022-11-29T09:05:49.510Z,98200.59
2022-11-29T09:08:16.046Z,98204.91
2022-11-29T09:10:43.023Z,98181.19
2022-11-29T09:13:10.454Z,98205.69
2022-11-29T09:15:38.285Z,98213.06
2022-11-29T09:18:05.771Z,98205.91
2022-11-29T09:20:33.198Z,98218.75
2022-11-29T09:23:01.122Z,98212.84
2022-11-29T09:25:27.825Z,98220.41
2022-11-29T09:27:54.201Z,98224.88
2022-11-29T09:30:23.812Z,98227.75
2022-11-29T09:32:50.637Z,98224.09
2022-11-29T09:35:17.436Z,98231.44
2022-11-29T09:37:44.185Z,98231.44
2022-11-29T09:40:22.761Z,98233.88
2022-11-29T09:42:59.544Z,98231.03
2022-11-29T09:45:35.830Z,98229.19
2022-11-29T09:48:27.676Z,98233.47
2022-11-29T09:51:18.493Z,98236.72
2022-11-29T09:54:19.412Z,98228.56
2022-11-29T09:56:49.966Z,98237.13
2022-11-29T09:59:28.969Z,98233.88
2022-11-29T10:02:05.812Z,98236.56
2022-11-29T10:04:40.504Z,98242.84
2022-11-29T10:07:12.563Z,98240.84
2022-11-29T10:09:45.951Z,98243.69
2022-11-29T10:12:17.137Z,98243.69
2022-11-29T10:14:57.658Z,98245.31
2022-11-29T10:17:34.307Z,98246.97
2022-11-29T10:20:09.920Z,98248.16
2022-11-29T10:22:49.541Z,98247.56
2022-11-29T10:25:39.714Z,98237.56
2022-11-29T10:28:13.833Z,98244.09
2022-11-29T10:30:41.632Z,98241.66
2022-11-29T10:33:19.021Z,98234.91
2022-11-29T10:35:47.047Z,98239.19
2022-11-29T10:38:30.253Z,98243.69
2022-11-29T10:41:07.885Z,98224.28
2022-11-29T10:43:34.915Z,98240.00
2022-11-29T10:46:02.458Z,98242.44
2022-11-29T10:48:32.921Z,98242.25
2022-11-29T10:51:01.373Z,98238.75
2022-11-29T10:53:32.792Z,98243.69
2022-11-29T10:56:03.972Z,98236.72
2022-11-29T10:58:32.774Z,98230.41
2022-11-29T11:01:07.375Z,98226.13
2022-11-29T11:04:05.141Z,98230.59
2022-11-29T11:06:56.185Z,98229.78
2022-11-29T11:09:38.253Z,98237.34
2022-11-29T11:12:19.938Z,98231.44
2022-11-29T11:14:47.239Z,98221.19
2022-11-29T11:17:36.481Z,98226.09
2022-11-29T11:20:08.636Z,98235.91
2022-11-29T11:22:39.694Z,98235.50
2022-11-29T11:25:30.180Z,98232.63
2022-11-29T11:28:10.564Z,98225.50
2022-11-29T11:30:37.193Z,98229.38
2022-11-29T11:33:26.870Z,98229.38
2022-11-29T11:36:19.554Z,98235.50
2022-11-29T11:39:10.120Z,98243.91
2022-11-29T11:42:00.418Z,98245.50
2022-11-29T11:44:48.278Z,98235.91
2022-11-29T11:47:30.837Z,98250.63
2022-11-29T11:50:00.276Z,98247.75
2022-11-29T11:52:30.746Z,98245.72
2022-11-29T11:55:01.207Z,98251.84
2022-11-29T11:57:28.529Z,98249.19
2022-11-29T12:00:01.989Z,98246.13
2022-11-29T12:02:40.630Z,98248.16
2022-11-29T12:05:17.114Z,98248.97
2022-11-29T12:10:40.316Z,98245.72
2022-11-29T12:13:19.753Z,98246.97
2022-11-29T12:15:49.696Z,98250.84
2022-11-29T12:18:34.665Z,98256.75
2022-11-29T12:21:14.149Z,98251.84
2022-11-29T12:23:49.076Z,98258.38
2022-11-29T12:26:55.519Z,98228.56
2022-11-29T12:29:19.249Z,98263.28
2022-11-29T12:32:30.478Z,98255.91
2022-11-29T12:35:23.177Z,98261.44
2022-11-29T12:37:56.499Z,98259.19
2022-11-29T12:40:46.766Z,98265.53
2022-11-29T12:43:39.129Z,98262.44
2022-11-29T12:46:13.775Z,98263.28
2022-11-29T12:48:46.971Z,98257.34
2022-11-29T12:51:34.787Z,98259.41
2022-11-29T12:54:35.431Z,98269.41
2022-11-29T12:57:34.294Z,98267.78
2022-11-29T13:00:11.967Z,98266.56
2022-11-29T13:02:54.361Z,98260.03
2022-11-29T13:05:20.902Z,98268.38
2022-11-29T13:08:05.851Z,98270.84
2022-11-29T13:10:36.640Z,98273.28
2022-11-29T13:13:18.185Z,98277.56
2022-11-29T13:15:56.728Z,98283.91
2022-11-29T13:18:43.914Z,98276.75
2022-11-29T13:21:22.882Z,98283.69
2022-11-29T13:24:08.520Z,98288.81
2022-11-29T13:26:37.715Z,98284.09
2022-11-29T13:29:06.201Z,98278.41
2022-11-29T13:31:33.454Z,98286.97
2022-11-29T13:34:11.366Z,98288.00
2022-11-29T13:37:02.115Z,98282.88
2022-11-29T13:40:05.965Z,98283.69
2022-11-29T13:42:45.279Z,98273.91
2022-11-29T13:45:34.209Z,98286.38
2022-11-29T13:48:02.176Z,98285.31
2022-11-29T13:50:44.915Z,98287.78
2022-11-29T13:53:21.447Z,98293.31
2022-11-29T13:56:02.803Z,98293.50
2022-11-29T13:58:29.223Z,98290.22
2022-11-29T14:01:06.717Z,98298.59
2022-11-29T14:03:39.520Z,98298.38
2022-11-29T14:06:20.966Z,98305.75
2022-11-29T14:11:42.810Z,98305.75
2022-11-29T14:14:24.946Z,98306.13
2022-11-29T14:17:03.443Z,98309.41
2022-11-29T14:19:35.488Z,98309.78
2022-11-29T14:22:01.870Z,98312.25
2022-11-29T14:24:35.560Z,98310.81
2022-11-29T14:27:14.180Z,98312.88
2022-11-29T14:29:49.966Z,98313.88
2022-11-29T14:32:28.592Z,98314.88
2022-11-29T14:35:10.610Z,98319.41
2022-11-29T14:37:58.863Z,98321.03
2022-11-29T14:40:34.865Z,98312.25
2022-11-29T14:43:05.356Z,98321.84
2022-11-29T14:45:34.421Z,98321.22
2022-11-29T14:48:01.701Z,98333.50
2022-11-29T14:50:37.344Z,98328.78
2022-11-29T14:53:07.082Z,98326.53
2022-11-29T14:55:36.762Z,98326.53
2022-11-29T14:58:03.985Z,98334.06
2022-11-29T15:00:55.116Z,98339.97
2022-11-29T15:03:36.775Z,98336.50
2022-11-29T15:06:17.781Z,98339.59
2022-11-29T15:08:55.629Z,98338.50
2022-11-29T15:11:57.244Z,98336.88
2022-11-29T15:14:46.281Z,98342.00
2022-11-29T15:17:30.798Z,98346.72
2022-11-29T15:20:21.853Z,98350.59
2022-11-29T15:22:57.914Z,98351.75
2022-11-29T15:25:28.353Z,98358.50
2022-11-29T15:27:56.086Z,98359.75
2022-11-29T15:30:28.797Z,98359.53
2022-11-29T15:32:56.741Z,98359.16
2022-11-29T15:35:23.542Z,98359.09
2022-11-29T15:37:50.312Z,98361.16
2022-11-29T15:40:21.832Z,98359.69
2022-11-29T15:43:07.102Z,98363.56
2022-11-29T15:45:36.168Z,98360.69
2022-11-29T15:48:13.695Z,98368.09
2022-11-29T15:50:49.832Z,98365.22
2022-11-29T15:53:21.311Z,98375.00
2022-11-29T15:55:50.557Z,98372.97
2022-11-29T15:58:17.926Z,98379.09
2022-11-29T16:00:49.652Z,98383.78
2022-11-29T16:03:25.073Z,98382.13
2022-11-29T16:06:20.703Z,98382.72
2022-11-29T16:08:49.186Z,98385.97
2022-11-29T16:11:20.210Z,98388.22
2022-11-29T16:14:11.915Z,98385.97
2022-11-29T16:16:40.232Z,98382.91
2022-11-29T16:19:10.961Z,98381.75
2022-11-29T16:21:37.577Z,98378.88
2022-11-29T16:24:20.599Z,98384.34
2022-11-29T16:26:49.591Z,98393.25
2022-11-29T16:29:37.468Z,98387.09
2022-11-29T16:32:24.681Z,98391.19
2022-11-29T16:34:51.401Z,98392.03
2022-11-29T16:37:22.115Z,98394.78
2022-11-29T16:39:51.411Z,98400.72
2022-11-29T16:42:26.205Z,98399.06
2022-11-29T16:44:55.853Z,98397.56
2022-11-29T16:47:24.840Z,98398.41
2022-11-29T16:50:13.678Z,98392.81
2022-11-29T16:52:40.217Z,98398.94
2022-11-29T16:55:06.988Z,98403.19
2022-11-29T16:57:33.607Z,98397.28
2022-11-29T17:00:00.066Z,98403.63
2022-11-29T17:02:29.272Z,98408.69
2022-11-29T17:04:56.935Z,98410.41
2022-11-29T17:07:30.229Z,98405.16
2022-11-29T17:09:57.065Z,98407.19
2022-11-29T17:12:23.573Z,98409.38
2022-11-29T17:14:50.026Z,98408.19
2022-11-29T17:17:18.917Z,98410.59
2022-11-29T17:19:45.570Z,98395.25
2022-11-29T17:22:12.627Z,98397.88
2022-11-29T17:24:43.545Z,98411.94
2022-11-29T17:27:14.090Z,98418.00
2022-11-29T17:29:40.611Z,98421.03
2022-11-29T17:32:07.132Z,98418.00
2022-11-29T17:34:33.721Z,98421.34
2022-11-29T17:37:00.122Z,98423.97
2022-11-29T17:39:26.566Z,98415.59
2022-11-29T17:41:53.053Z,98425.44
2022-11-29T17:44:19.511Z,98415.44
2022-11-29T17:46:46.215Z,98415.69
2022-11-29T17:49:12.660Z,98425.44
2022-11-29T17:51:55.925Z,98430.97
2022-11-29T17:54:22.921Z,98422.22
2022-11-29T17:56:49.705Z,98430.81
2022-11-29T17:59:16.141Z,98428.97
2022-11-29T18:01:42.687Z,98425.75
2022-11-29T18:04:09.191Z,98425.56
2022-11-29T18:06:40.304Z,98421.41
2022-11-29T18:09:08.821Z,98434.94
2022-11-29T18:11:45.303Z,98438.13
2022-11-29T18:14:16.018Z,98434.63
2022-11-29T18:16:42.609Z,98433.25
2022-11-29T18:19:12.554Z,98432.03
2022-11-29T18:21:39.059Z,98441.34
2022-11-29T18:24:06.877Z,98439.75
2022-11-29T18:26:34.936Z,98447.88
2022-11-29T18:29:01.481Z,98447.47
2022-11-29T18:31:30.382Z,98448.47
2022-11-29T18:33:59.705Z,98449.13
2022-11-29T18:36:29.016Z,98456.03
2022-11-29T18:38:58.156Z,98453.13
2022-11-29T18:41:25.935Z,98459.50
2022-11-29T18:44:01.528Z,98451.59
2022-11-29T18:46:36.709Z,98457.38
2022-11-29T18:49:06.374Z,98458.19
2022-11-29T18:51:34.106Z,98456.91
2022-11-29T18:54:01.494Z,98464.63
2022-11-29T18:56:30.437Z,98466.22
2022-11-29T18:58:59.654Z,98469.81
2022-11-29T19:01:29.964Z,98473.00
2022-11-29T19:03:59.568Z,98475.03
2022-11-29T19:06:37.363Z,98482.81
2022-11-29T19:09:06.883Z,98462.13
2022-11-29T19:11:34.445Z,98481.56
2022-11-29T19:14:06.366Z,98477.28
2022-11-29T19:16:34.449Z,98479.72
2022-11-29T19:19:01.774Z,98483.56
2022-11-29T19:21:31.832Z,98482.34
2022-11-29T19:24:05.524Z,98486.00
2022-11-29T19:26:33.492Z,98478.22
2022-11-29T19:29:01.416Z,98478.81
2022-11-29T19:31:28.476Z,98483.50
2022-11-29T19:33:55.432Z,98486.78
2022-11-29T19:36:24.659Z,98484.72
2022-11-29T19:38:53.676Z,98483.88
2022-11-29T19:41:26.680Z,98493.25
2022-11-29T19:43:54.049Z,98483.41
2022-11-29T19:46:23.919Z,98488.72
2022-11-29T19:48:52.920Z,98483.88
2022-11-29T19:51:20.307Z,98485.06
2022-11-29T19:53:47.553Z,98490.75
2022-11-29T19:56:16.391Z,98499.31
2022-11-29T19:58:43.932Z,98495.22
2022-11-29T20:01:16.265Z,98503.84
2022-11-29T20:03:44.937Z,98494.38
2022-11-29T20:06:13.728Z,98494.97
2022-11-29T20:08:41.127Z,98499.25
2022-11-29T20:11:09.914Z,98499.56
2022-11-29T20:13:37.535Z,98498.19
2022-11-29T20:16:05.964Z,98498.19
2022-11-29T20:18:33.566Z,98492.91
2022-11-29T20:21:05.424Z,98496.13
2022-11-29T20:23:32.184Z,98504.47
2022-11-29T20:25:58.872Z,98493.84
2022-11-29T20:28:25.623Z,98503.19
2022-11-29T20:31:05.356Z,98494.63
2022-11-29T20:33:32.244Z,98497.63
2022-11-29T20:36:35.909Z,98503.72
2022-11-29T20:39:20.522Z,98498.56
2022-11-29T20:41:52.902Z,98508.28
2022-11-29T20:44:45.207Z,98511.03
2022-11-29T20:47:18.112Z,98515.16
2022-11-29T20:49:45.198Z,98522.84
2022-11-29T20:52:37.061Z,98530.38
2022-11-29T20:55:04.100Z,98527.06
2022-11-29T20:57:30.510Z,98516.84
2022-11-29T20:59:57.015Z,98527.91
2022-11-29T21:02:24.648Z,98522.53
2022-11-29T21:04:52.750Z,98518.22
2022-11-29T21:07:19.195Z,98532.56
2022-11-29T21:09:45.848Z,98529.34
2022-11-29T21:12:12.820Z,98525.44
2022-11-29T21:14:39.583Z,98529.69
2022-11-29T21:17:06.557Z,98524.69
2022-11-29T21:19:33.392Z,98530.25
2022-11-29T21:22:19.757Z,98531.94
2022-11-29T21:25:15.224Z,98543.00
2022-11-29T21:27:41.936Z,98530.03
2022-11-29T21:30:22.462Z,98536.94
2022-11-29T21:32:49.524Z,98532.09
2022-11-29T21:35:17.827Z,98530.75
2022-11-29T21:37:44.817Z,98523.38
2022-11-29T21:40:12.412Z,98526.56
2022-11-29T21:42:39.030Z,98517.06
2022-11-29T21:45:09.318Z,98527.53
2022-11-29T21:47:41.275Z,98522.19
2022-11-29T21:50:08.165Z,98526.72
2022-11-29T21:52:34.730Z,98527.91
2022-11-29T21:55:01.206Z,98522.97
2022-11-29T21:57:27.630Z,98534.38
2022-11-29T21:59:54.282Z,98530.66
2022-11-29T22:02:21.110Z,98527.53
2022-11-29T22:04:47.818Z,98535.53
2022-11-29T22:07:14.501Z,98528.00
2022-11-29T22:09:41.011Z,98536.13
2022-11-29T22:12:31.823Z,98535.16
2022-11-29T22:14:54.061Z,98528.69
2022-11-29T22:17:20.516Z,98524.66
2022-11-29T22:19:46.981Z,98530.03
2022-11-29T22:22:14.352Z,98513.81
2022-11-29T22:24:41.018Z,98527.56
2022-11-29T22:27:07.469Z,98533.84
2022-11-29T22:29:34.306Z,98533.13
2022-11-29T22:32:01.196Z,98537.53
2022-11-29T22:34:28.526Z,98545.09
2022-11-29T22:36:55.667Z,98540.44
2022-11-29T22:39:23.863Z,98535.16
2022-11-29T22:41:54.328Z,98533.84
2022-11-29T22:44:22.286Z,98540.88
2022-11-29T22:46:48.783Z,98539.25
2022-11-29T22:49:15.568Z,98540.03
2022-11-29T22:51:42.350Z,98543.09
2022-11-29T22:54:11.260Z,98543.34
2022-11-29T22:56:40.466Z,98552.00
2022-11-29T22:59:07.465Z,98547.75
2022-11-29T23:01:36.246Z,98553.41
2022-11-29T23:04:04.532Z,98547.34
2022-11-29T23:06:40.096Z,98541.53
2022-11-29T23:09:11.818Z,98549.03
2022-11-29T23:11:38.730Z,98532.13
2022-11-29T23:14:05.192Z,98539.06
2022-11-29T23:16:32.747Z,98538.59
2022-11-29T23:18:59.942Z,98544.81
2022-11-29T23:21:32.049Z,98543.28
2022-11-29T23:24:00.835Z,98551.50
2022-11-29T23:26:31.189Z,98548.72
2022-11-29T23:28:58.320Z,98540.16
2022-11-29T23:31:25.071Z,98552.84
2022-11-29T23:33:52.055Z,98543.72
2022-11-29T23:36:18.973Z,98546.56
2022-11-29T23:38:47.466Z,98540.81
2022-11-29T23:41:14.414Z,98550.19
2022-11-29T23:43:41.430Z,98543.56
2022-11-29T23:46:16.694Z,98550.03
2022-11-29T23:48:44.840Z,98544.94
2022-11-29T23:51:11.693Z,98537.91
2022-11-29T23:53:38.932Z,98538.91
2022-11-29T23:56:08.541Z,98543.00
2022-11-29T23:58:35.214Z,98547.38
